Terminal Aerodrome Forecast
Issued by NWS Topeka, KS

Home | Current Version | Previous Version | Graphics & Text | Print | Product List | Glossary On
Versions: 1 2 3 4 5 6 7 8 9 10 11 12 13 14 15 16 17 18 19
000
FTUS43 KTOP 222300
TAFTOP
TAF
KTOP 222320Z 2300/2324 15008KT P6SM FEW040 BKN200
     FM230400 16007KT 6SM -SHRA BR OVC025
     FM231100 19005KT 6SM BR OVC017
     FM231700 21007KT P6SM BKN025
     FM232200 19005KT P6SM SCT030=

USA.gov is the U.S. government's official web portal to all federal, state and local government web resources and services.